Time,TemperatureF,DewpointF,PressureIn,WindDirection,WindDirectionDegrees,WindSpeedMPH,WindSpeedGustMPH,Humidity,HourlyPrecipIn,Conditions,Clouds,dailyrainin,SoftwareType,DateUTC
2013-09-23 00:00:00,61.3,59.0,29.84,NE,42,0.0,0.0,92,0.00,,,0.01,Wunderground v.1.15,2013-09-23 04:00:00,
2013-09-23 00:06:00,61.3,59.0,29.84,NE,42,0.0,0.0,92,0.00,,,0.00,Wunderground v.1.15,2013-09-23 04:06:00,
2013-09-23 00:11:00,61.3,59.0,29.85,NE,42,0.0,0.0,92,0.00,,,0.00,Wunderground v.1.15,2013-09-23 04:11:00,
2013-09-23 00:16:00,61.3,59.0,29.84,NE,42,0.0,0.0,92,0.00,,,0.00,Wunderground v.1.15,2013-09-23 04:16:00,
2013-09-23 00:22:00,61.3,59.0,29.84,NE,42,0.0,0.0,92,0.00,,,0.00,Wunderground v.1.15,2013-09-23 04:22:00,
2013-09-23 00:27:00,61.1,58.8,29.85,NE,42,0.0,0.0,92,0.00,,,0.00,Wunderground v.1.15,2013-09-23 04:27:00,
2013-09-23 00:32:00,61.0,58.7,29.85,NE,42,0.0,0.0,92,0.00,,,0.00,Wunderground v.1.15,2013-09-23 04:32:00,
2013-09-23 00:37:00,60.9,58.6,29.85,NE,42,0.0,0.0,92,0.00,,,0.00,Wunderground v.1.15,2013-09-23 04:37:00,
2013-09-23 00:43:00,60.8,58.5,29.85,NE,42,0.0,0.0,92,0.00,,,0.00,Wunderground v.1.15,2013-09-23 04:43:00,
2013-09-23 00:48:00,60.7,58.4,29.86,NE,42,0.0,0.0,92,0.00,,,0.00,Wunderground v.1.15,2013-09-23 04:48:00,
2013-09-23 00:53:00,60.5,58.5,29.85,NE,42,0.0,0.0,93,0.00,,,0.00,Wunderground v.1.15,2013-09-23 04:53:00,
2013-09-23 00:59:00,60.5,58.5,29.85,NE,42,0.0,0.0,93,0.00,,,0.00,Wunderground v.1.15,2013-09-23 04:59:00,
2013-09-23 01:04:00,60.5,58.5,29.85,NE,42,0.0,0.0,93,0.00,,,0.00,Wunderground v.1.15,2013-09-23 05:04:00,
2013-09-23 01:09:00,60.4,58.4,29.85,NE,42,0.0,0.0,93,0.00,,,0.00,Wunderground v.1.15,2013-09-23 05:09:00,
2013-09-23 01:14:00,60.3,58.3,29.85,NE,42,0.0,0.0,93,0.00,,,0.00,Wunderground v.1.15,2013-09-23 05:14:00,
2013-09-23 01:20:00,60.2,58.5,29.85,NE,42,0.0,0.0,94,0.00,,,0.00,Wunderground v.1.15,2013-09-23 05:20:00,
2013-09-23 01:25:00,60.1,58.4,29.85,NE,42,0.0,0.0,94,0.00,,,0.00,Wunderground v.1.15,2013-09-23 05:25:00,
2013-09-23 01:30:00,60.0,58.3,29.85,NE,42,0.0,0.0,94,0.00,,,0.00,Wunderground v.1.15,2013-09-23 05:30:00,
2013-09-23 01:35:00,60.0,58.3,29.85,NE,42,0.0,0.0,94,0.00,,,0.00,Wunderground v.1.15,2013-09-23 05:35:00,
2013-09-23 01:40:00,60.0,58.3,29.85,NE,42,0.0,0.0,94,0.00,,,0.00,Wunderground v.1.15,2013-09-23 05:40:00,
2013-09-23 01:46:00,60.0,58.3,29.86,NE,42,0.0,0.0,94,0.00,,,0.00,Wunderground v.1.15,2013-09-23 05:46:00,
2013-09-23 01:51:00,59.9,58.2,29.86,NE,42,0.0,0.0,94,0.00,,,0.00,Wunderground v.1.15,2013-09-23 05:51:00,
2013-09-23 01:56:00,59.9,58.2,29.86,NE,42,0.0,0.0,94,0.00,,,0.00,Wunderground v.1.15,2013-09-23 05:56:00,
2013-09-23 02:01:00,60.0,58.3,29.86,NE,42,0.0,0.0,94,0.00,,,0.00,Wunderground v.1.15,2013-09-23 06:01:00,
2013-09-23 02:06:00,59.8,57.8,29.86,NE,42,0.0,0.0,93,0.00,,,0.00,Wunderground v.1.15,2013-09-23 06:06:00,
2013-09-23 02:12:00,59.5,57.2,29.86,NE,42,0.0,0.0,92,0.00,,,0.00,Wunderground v.1.15,2013-09-23 06:12:00,
2013-09-23 02:17:00,59.3,57.0,29.87,NE,42,0.0,0.0,92,0.00,,,0.00,Wunderground v.1.15,2013-09-23 06:17:00,
2013-09-23 02:22:00,59.2,57.2,29.87,NE,42,0.0,0.0,93,0.00,,,0.00,Wunderground v.1.15,2013-09-23 06:22:00,
2013-09-23 02:27:00,59.1,57.1,29.87,NE,42,0.0,0.0,93,0.00,,,0.00,Wunderground v.1.15,2013-09-23 06:27:00,
2013-09-23 02:32:00,58.9,56.9,29.86,NE,42,0.0,0.0,93,0.00,,,0.00,Wunderground v.1.15,2013-09-23 06:32:00,
2013-09-23 02:37:00,58.7,56.7,29.86,NE,42,0.0,0.0,93,0.00,,,0.00,Wunderground v.1.15,2013-09-23 06:37:00,
2013-09-23 02:42:00,58.7,56.7,29.87,NE,42,0.0,0.0,93,0.00,,,0.00,Wunderground v.1.15,2013-09-23 06:42:00,
2013-09-23 02:47:00,58.4,56.4,29.87,NE,42,0.0,0.0,93,0.00,,,0.00,Wunderground v.1.15,2013-09-23 06:47:00,
2013-09-23 02:52:00,58.2,55.9,29.87,NE,42,0.0,0.0,92,0.00,,,0.00,Wunderground v.1.15,2013-09-23 06:52:00,
2013-09-23 02:57:00,58.1,56.1,29.87,NE,42,0.0,0.0,93,0.00,,,0.00,Wunderground v.1.15,2013-09-23 06:57:00,
2013-09-23 03:02:00,58.1,56.4,29.87,NE,42,0.0,0.0,94,0.00,,,0.00,Wunderground v.1.15,2013-09-23 07:02:00,
2013-09-23 03:07:00,58.2,56.5,29.87,NE,42,0.0,0.0,94,0.00,,,0.00,Wunderground v.1.15,2013-09-23 07:07:00,
2013-09-23 03:12:00,58.3,56.6,29.86,NE,42,0.0,0.0,94,0.00,,,0.00,Wunderground v.1.15,2013-09-23 07:12:00,
2013-09-23 03:17:00,58.4,56.7,29.87,NE,42,0.0,0.0,94,0.00,,,0.00,Wunderground v.1.15,2013-09-23 07:17:00,
2013-09-23 03:22:00,58.7,57.0,29.86,NE,42,0.0,0.0,94,0.00,,,0.00,Wunderground v.1.15,2013-09-23 07:22:00,
2013-09-23 03:27:00,58.9,56.9,29.87,NE,42,0.0,0.0,93,0.00,,,0.00,Wunderground v.1.15,2013-09-23 07:27:00,
2013-09-23 03:32:00,58.6,56.0,29.87,NE,42,0.0,0.0,91,0.00,,,0.00,Wunderground v.1.15,2013-09-23 07:32:00,
2013-09-23 03:37:00,58.2,55.9,29.87,NE,42,0.0,0.0,92,0.00,,,0.00,Wunderground v.1.15,2013-09-23 07:37:00,
2013-09-23 03:42:00,58.0,56.3,29.87,NE,42,0.0,0.0,94,0.00,,,0.00,Wunderground v.1.15,2013-09-23 07:42:00,
2013-09-23 03:47:00,57.8,55.8,29.87,NE,42,0.0,0.0,93,0.00,,,0.00,Wunderground v.1.15,2013-09-23 07:47:00,
2013-09-23 03:52:00,57.5,55.5,29.87,NE,42,0.0,0.0,93,0.00,,,0.00,Wunderground v.1.15,2013-09-23 07:52:00,
2013-09-23 03:57:00,57.5,55.8,29.87,NE,42,0.0,0.0,94,0.00,,,0.00,Wunderground v.1.15,2013-09-23 07:57:00,
2013-09-23 04:03:00,57.4,55.7,29.88,NE,42,0.0,0.0,94,0.00,,,0.00,Wunderground v.1.15,2013-09-23 08:03:00,
2013-09-23 04:08:00,57.6,56.2,29.87,NE,42,0.0,0.0,95,0.00,,,0.00,Wunderground v.1.15,2013-09-23 08:08:00,
2013-09-23 04:13:00,57.7,56.3,29.88,NE,42,0.0,0.0,95,0.00,,,0.00,Wunderground v.1.15,2013-09-23 08:13:00,
2013-09-23 04:18:00,57.5,55.5,29.88,NE,42,0.0,0.0,93,0.00,,,0.00,Wunderground v.1.15,2013-09-23 08:18:00,
2013-09-23 04:23:00,57.3,55.3,29.88,NE,42,0.0,0.0,93,0.00,,,0.00,Wunderground v.1.15,2013-09-23 08:23:00,
2013-09-23 04:28:00,57.3,55.6,29.88,NE,42,0.0,0.0,94,0.00,,,0.00,Wunderground v.1.15,2013-09-23 08:28:00,
2013-09-23 04:33:00,57.3,55.6,29.87,NE,42,0.0,0.0,94,0.00,,,0.00,Wunderground v.1.15,2013-09-23 08:33:00,
2013-09-23 04:38:00,57.3,55.6,29.88,NE,42,0.0,0.0,94,0.00,,,0.00,Wunderground v.1.15,2013-09-23 08:38:00,
2013-09-23 04:43:00,57.3,55.6,29.88,NE,42,0.0,0.0,94,0.00,,,0.00,Wunderground v.1.15,2013-09-23 08:43:00,
2013-09-23 04:48:00,57.3,55.6,29.88,NE,42,0.0,0.0,94,0.00,,,0.00,Wunderground v.1.15,2013-09-23 08:48:00,
2013-09-23 04:53:00,57.5,55.8,29.88,NE,42,0.0,0.0,94,0.00,,,0.00,Wunderground v.1.15,2013-09-23 08:53:00,
2013-09-23 04:58:00,57.6,56.2,29.88,NE,42,0.0,0.0,95,0.00,,,0.00,Wunderground v.1.15,2013-09-23 08:58:00,
2013-09-23 05:03:00,57.6,56.2,29.89,NE,42,0.0,0.0,95,0.00,,,0.00,Wunderground v.1.15,2013-09-23 09:03:00,
2013-09-23 05:08:00,57.4,55.7,29.89,NE,42,0.0,0.0,94,0.00,,,0.00,Wunderground v.1.15,2013-09-23 09:08:00,
2013-09-23 05:13:00,57.2,55.2,29.89,NE,42,0.0,0.0,93,0.00,,,0.00,Wunderground v.1.15,2013-09-23 09:13:00,
2013-09-23 05:18:00,57.1,55.4,29.89,NE,42,0.0,0.0,94,0.00,,,0.00,Wunderground v.1.15,2013-09-23 09:18:00,
2013-09-23 05:23:00,57.1,55.7,29.89,NE,42,0.0,0.0,95,0.00,,,0.00,Wunderground v.1.15,2013-09-23 09:23:00,
2013-09-23 05:28:00,57.1,55.7,29.89,NE,42,0.0,0.0,95,0.00,,,0.00,Wunderground v.1.15,2013-09-23 09:28:00,
2013-09-23 05:33:00,56.9,55.2,29.89,NE,42,0.0,0.0,94,0.00,,,0.00,Wunderground v.1.15,2013-09-23 09:33:00,
2013-09-23 05:38:00,56.8,55.1,29.89,NE,42,0.0,0.0,94,0.00,,,0.00,Wunderground v.1.15,2013-09-23 09:38:00,
2013-09-23 05:43:00,56.7,55.0,29.90,NE,42,0.0,0.0,94,0.00,,,0.00,Wunderground v.1.15,2013-09-23 09:43:00,
2013-09-23 05:48:00,56.6,54.9,29.90,NE,42,0.0,0.0,94,0.00,,,0.00,Wunderground v.1.15,2013-09-23 09:48:00,
2013-09-23 05:53:00,56.5,54.8,29.90,NE,42,0.0,0.0,94,0.00,,,0.00,Wunderground v.1.15,2013-09-23 09:53:00,
2013-09-23 05:58:00,56.3,54.6,29.90,NE,42,0.0,0.0,94,0.00,,,0.00,Wunderground v.1.15,2013-09-23 09:58:00,
2013-09-23 06:03:00,56.2,54.5,29.90,NE,42,0.0,0.0,94,0.00,,,0.00,Wunderground v.1.15,2013-09-23 10:03:00,
2013-09-23 06:08:00,56.2,54.5,29.90,NE,42,0.0,0.0,94,0.00,,,0.00,Wunderground v.1.15,2013-09-23 10:08:00,
2013-09-23 06:13:00,56.3,54.9,29.91,NE,42,0.0,0.0,95,0.00,,,0.00,Wunderground v.1.15,2013-09-23 10:13:00,
2013-09-23 06:19:00,56.5,55.4,29.91,NE,42,0.0,0.0,96,0.00,,,0.00,Wunderground v.1.15,2013-09-23 10:19:00,
2013-09-23 06:24:00,56.7,55.6,29.91,NE,42,0.0,0.0,96,0.00,,,0.00,Wunderground v.1.15,2013-09-23 10:24:00,
2013-09-23 06:29:00,56.8,55.7,29.92,NE,42,0.0,0.0,96,0.00,,,0.00,Wunderground v.1.15,2013-09-23 10:29:00,
2013-09-23 06:34:00,56.5,54.8,29.92,NE,42,0.0,0.0,94,0.00,,,0.00,Wunderground v.1.15,2013-09-23 10:34:00,
2013-09-23 06:39:00,56.3,54.6,29.92,NE,42,0.0,0.0,94,0.00,,,0.00,Wunderground v.1.15,2013-09-23 10:39:00,
2013-09-23 06:44:00,56.3,54.9,29.92,NE,42,0.0,0.0,95,0.00,,,0.00,Wunderground v.1.15,2013-09-23 10:44:00,
2013-09-23 06:49:00,56.5,55.4,29.92,NE,42,0.0,0.0,96,0.00,,,0.00,Wunderground v.1.15,2013-09-23 10:49:00,
2013-09-23 06:54:00,56.5,55.1,29.93,NE,42,0.0,0.0,95,0.00,,,0.00,Wunderground v.1.15,2013-09-23 10:54:00,
2013-09-23 06:59:00,56.1,54.1,29.93,NE,42,0.0,0.0,93,0.00,,,0.00,Wunderground v.1.15,2013-09-23 10:59:00,
2013-09-23 07:04:00,55.8,53.8,29.93,NE,42,0.0,0.0,93,0.00,,,0.00,Wunderground v.1.15,2013-09-23 11:04:00,
2013-09-23 07:09:00,55.7,54.0,29.93,NE,42,0.0,0.0,94,0.00,,,0.00,Wunderground v.1.15,2013-09-23 11:09:00,
2013-09-23 07:14:00,55.6,53.9,29.93,NE,42,0.0,0.0,94,0.00,,,0.00,Wunderground v.1.15,2013-09-23 11:14:00,
2013-09-23 07:20:00,55.5,53.8,29.94,NE,42,0.0,0.0,94,0.00,,,0.00,Wunderground v.1.15,2013-09-23 11:20:00,
2013-09-23 07:25:00,55.3,53.3,29.94,NE,42,0.0,0.0,93,0.00,,,0.00,Wunderground v.1.15,2013-09-23 11:25:00,
2013-09-23 07:30:00,55.1,53.4,29.94,NE,42,0.0,0.0,94,0.00,,,0.00,Wunderground v.1.15,2013-09-23 11:30:00,
2013-09-23 07:35:00,55.1,53.4,29.94,NE,42,0.0,0.0,94,0.00,,,0.00,Wunderground v.1.15,2013-09-23 11:35:00,
2013-09-23 07:40:00,55.1,53.7,29.95,NE,42,0.0,0.0,95,0.00,,,0.00,Wunderground v.1.15,2013-09-23 11:40:00,
2013-09-23 07:45:00,55.3,53.9,29.95,NE,42,0.0,0.0,95,0.00,,,0.00,Wunderground v.1.15,2013-09-23 11:45:00,
2013-09-23 07:50:00,55.5,54.1,29.95,NE,42,0.0,0.0,95,0.00,,,0.00,Wunderground v.1.15,2013-09-23 11:50:00,
2013-09-23 07:55:00,55.6,54.2,29.95,NE,42,0.0,0.0,95,0.00,,,0.00,Wunderground v.1.15,2013-09-23 11:55:00,
2013-09-23 08:00:00,55.9,54.8,29.96,NE,42,0.0,0.0,96,0.00,,,0.00,Wunderground v.1.15,2013-09-23 12:00:00,
2013-09-23 08:05:00,56.5,55.4,29.96,NE,42,0.0,0.0,96,0.00,,,0.00,Wunderground v.1.15,2013-09-23 12:05:00,
2013-09-23 08:10:00,56.7,55.6,29.97,NE,42,0.0,0.0,96,0.00,,,0.00,Wunderground v.1.15,2013-09-23 12:10:00,
2013-09-23 08:15:00,57.2,56.1,29.96,NE,42,0.0,0.0,96,0.00,,,0.00,Wunderground v.1.15,2013-09-23 12:15:00,
2013-09-23 08:20:00,57.8,56.7,29.97,NE,42,0.0,0.0,96,0.00,,,0.00,Wunderground v.1.15,2013-09-23 12:20:00,
2013-09-23 08:25:00,58.3,57.2,29.97,NE,42,0.0,0.0,96,0.00,,,0.00,Wunderground v.1.15,2013-09-23 12:25:00,
2013-09-23 08:30:00,58.7,57.6,29.97,NE,42,0.0,0.0,96,0.00,,,0.00,Wunderground v.1.15,2013-09-23 12:30:00,
2013-09-23 08:35:00,59.2,58.1,29.97,NE,42,0.0,0.0,96,0.00,,,0.00,Wunderground v.1.15,2013-09-23 12:35:00,
2013-09-23 08:40:00,59.7,58.3,29.97,NE,42,0.0,0.0,95,0.00,,,0.00,Wunderground v.1.15,2013-09-23 12:40:00,
2013-09-23 08:45:00,60.1,58.4,29.97,NE,42,0.0,0.0,94,0.00,,,0.00,Wunderground v.1.15,2013-09-23 12:45:00,
2013-09-23 08:50:00,60.5,58.5,29.97,NE,42,0.0,0.0,93,0.00,,,0.00,Wunderground v.1.15,2013-09-23 12:50:00,
2013-09-23 08:55:00,61.0,59.0,29.98,NE,42,0.0,0.0,93,0.00,,,0.00,Wunderground v.1.15,2013-09-23 12:55:00,
2013-09-23 09:00:00,61.6,59.3,29.98,NE,42,0.0,0.0,92,0.00,,,0.00,Wunderground v.1.15,2013-09-23 13:00:00,
2013-09-23 09:05:00,62.0,59.3,29.98,NE,42,0.0,0.0,91,0.00,,,0.00,Wunderground v.1.15,2013-09-23 13:05:00,
2013-09-23 09:10:00,62.6,59.6,29.98,NE,42,0.0,0.0,90,0.00,,,0.00,Wunderground v.1.15,2013-09-23 13:10:00,
2013-09-23 09:15:00,63.2,59.9,29.98,NE,42,0.0,0.0,89,0.00,,,0.00,Wunderground v.1.15,2013-09-23 13:15:00,
2013-09-23 09:20:00,63.8,60.2,29.98,NE,42,0.0,0.0,88,0.00,,,0.00,Wunderground v.1.15,2013-09-23 13:20:00,
2013-09-23 09:25:00,64.5,60.9,29.98,NE,42,0.0,0.0,88,0.00,,,0.00,Wunderground v.1.15,2013-09-23 13:25:00,
2013-09-23 09:30:00,65.1,61.1,29.98,NE,42,0.0,0.0,87,0.00,,,0.00,Wunderground v.1.15,2013-09-23 13:30:00,
2013-09-23 09:35:00,65.6,61.6,29.98,NE,42,0.0,0.0,87,0.00,,,0.00,Wunderground v.1.15,2013-09-23 13:35:00,
2013-09-23 09:40:00,66.1,61.8,29.98,SSE,157,0.0,0.0,86,0.00,,,0.00,Wunderground v.1.15,2013-09-23 13:40:00,
2013-09-23 09:45:00,66.6,62.6,29.98,ESE,109,0.0,0.0,87,0.00,,,0.00,Wunderground v.1.15,2013-09-23 13:45:00,
2013-09-23 09:50:00,67.0,62.7,29.98,East,85,0.0,0.0,86,0.00,,,0.00,Wunderground v.1.15,2013-09-23 13:50:00,
2013-09-23 09:55:00,67.7,63.0,29.98,East,84,0.0,0.0,85,0.00,,,0.00,Wunderground v.1.15,2013-09-23 13:55:00,
2013-09-23 10:00:00,68.1,63.1,29.98,East,84,0.0,0.0,84,0.00,,,0.00,Wunderground v.1.15,2013-09-23 14:00:00,
2013-09-23 10:05:00,68.4,63.0,29.98,ENE,77,0.0,5.0,83,0.00,,,0.00,Wunderground v.1.15,2013-09-23 14:05:00,
2013-09-23 10:10:00,68.7,63.0,29.98,NE,37,4.0,4.0,82,0.00,,,0.00,Wunderground v.1.15,2013-09-23 14:10:00,
2013-09-23 10:15:00,69.0,62.9,29.98,ENE,73,0.0,5.0,81,0.00,,,0.00,Wunderground v.1.15,2013-09-23 14:15:00,
2013-09-23 10:20:00,69.2,62.0,29.98,ENE,71,0.0,5.0,78,0.00,,,0.00,Wunderground v.1.15,2013-09-23 14:20:00,
2013-09-23 10:25:00,69.4,62.6,29.98,ENE,68,1.0,5.0,79,0.00,,,0.00,Wunderground v.1.15,2013-09-23 14:25:00,
2013-09-23 10:30:00,69.7,62.5,29.98,ENE,69,0.0,2.0,78,0.00,,,0.00,Wunderground v.1.15,2013-09-23 14:30:00,
2013-09-23 10:35:00,69.9,62.0,29.98,ENE,70,0.0,2.0,76,0.00,,,0.00,Wunderground v.1.15,2013-09-23 14:35:00,
2013-09-23 10:40:00,70.2,63.0,29.98,ENE,61,2.0,3.0,78,0.00,,,0.00,Wunderground v.1.15,2013-09-23 14:40:00,
2013-09-23 10:45:00,70.6,62.7,29.99,NE,51,0.0,3.0,76,0.00,,,0.00,Wunderground v.1.15,2013-09-23 14:45:00,
2013-09-23 10:51:00,71.2,62.5,29.99,ESE,123,4.0,4.0,74,0.00,,,0.00,Wunderground v.1.15,2013-09-23 14:51:00,
2013-09-23 10:56:00,71.7,62.2,29.99,SSE,167,4.0,7.0,72,0.00,,,0.00,Wunderground v.1.15,2013-09-23 14:56:00,
2013-09-23 11:01:00,72.2,62.3,29.98,South,188,1.0,5.0,71,0.00,,,0.00,Wunderground v.1.15,2013-09-23 15:01:00,
2013-09-23 11:06:00,72.7,61.9,29.99,SSW,213,0.0,5.0,69,0.00,,,0.00,Wunderground v.1.15,2013-09-23 15:06:00,
2013-09-23 11:11:00,73.0,61.4,29.99,ENE,62,1.0,7.0,67,0.00,,,0.00,Wunderground v.1.15,2013-09-23 15:11:00,
2013-09-23 11:16:00,73.3,61.7,29.99,SSW,192,3.0,3.0,67,0.00,,,0.00,Wunderground v.1.15,2013-09-23 15:16:00,
2013-09-23 11:21:00,73.6,61.1,29.99,South,187,3.0,7.0,65,0.00,,,0.00,Wunderground v.1.15,2013-09-23 15:21:00,
2013-09-23 11:26:00,74.0,61.5,29.99,South,187,0.0,2.0,65,0.00,,,0.00,Wunderground v.1.15,2013-09-23 15:26:00,
2013-09-23 11:31:00,74.0,61.9,29.99,ENE,74,0.0,3.0,66,0.00,,,0.00,Wunderground v.1.15,2013-09-23 15:31:00,
2013-09-23 11:36:00,74.1,62.4,29.99,ESE,103,0.0,0.0,67,0.00,,,0.00,Wunderground v.1.15,2013-09-23 15:36:00,
2013-09-23 11:41:00,74.6,62.1,29.99,South,181,0.0,6.0,65,0.00,,,0.00,Wunderground v.1.15,2013-09-23 15:41:00,
2013-09-23 11:46:00,74.8,61.8,29.99,SSE,164,7.0,7.0,64,0.00,,,0.00,Wunderground v.1.15,2013-09-23 15:46:00,
2013-09-23 11:51:00,74.9,61.9,29.99,ENE,74,1.0,7.0,64,0.00,,,0.00,Wunderground v.1.15,2013-09-23 15:51:00,
2013-09-23 11:56:00,75.3,62.3,29.99,SSE,167,5.0,6.0,64,0.00,,,0.00,Wunderground v.1.15,2013-09-23 15:56:00,
2013-09-23 12:01:00,75.8,62.3,29.99,South,180,0.0,7.0,63,0.00,,,0.00,Wunderground v.1.15,2013-09-23 16:01:00,
2013-09-23 12:06:00,76.3,61.4,29.99,South,184,0.0,2.0,60,0.00,,,0.00,Wunderground v.1.15,2013-09-23 16:06:00,
2013-09-23 12:11:00,76.8,61.9,29.99,South,179,4.0,6.0,60,0.00,,,0.00,Wunderground v.1.15,2013-09-23 16:11:00,
2013-09-23 12:16:00,77.0,61.6,29.99,SSW,202,4.0,5.0,59,0.00,,,0.00,Wunderground v.1.15,2013-09-23 16:16:00,
2013-09-23 12:21:00,76.9,60.0,29.99,SSW,194,6.0,8.0,56,0.00,,,0.00,Wunderground v.1.15,2013-09-23 16:21:00,
2013-09-23 12:26:00,77.0,59.6,29.99,SSW,193,4.0,5.0,55,0.00,,,0.00,Wunderground v.1.15,2013-09-23 16:26:00,
2013-09-23 12:31:00,77.1,60.7,29.99,South,179,4.0,7.0,57,0.00,,,0.00,Wunderground v.1.15,2013-09-23 16:31:00,
2013-09-23 12:36:00,77.4,58.4,29.99,SW,225,3.0,5.0,52,0.00,,,0.00,Wunderground v.1.15,2013-09-23 16:36:00,
2013-09-23 12:41:00,77.6,59.6,29.99,ESE,105,0.0,13.0,54,0.00,,,0.00,Wunderground v.1.15,2013-09-23 16:41:00,
2013-09-23 12:46:00,77.9,57.8,29.99,ESE,103,0.0,2.0,50,0.00,,,0.00,Wunderground v.1.15,2013-09-23 16:46:00,
2013-09-23 12:52:00,77.6,58.0,29.99,ENE,62,0.0,2.0,51,0.00,,,0.00,Wunderground v.1.15,2013-09-23 16:52:00,
2013-09-23 12:57:00,78.0,58.4,29.99,South,186,3.0,5.0,51,0.00,,,0.00,Wunderground v.1.15,2013-09-23 16:57:00,
2013-09-23 13:02:00,78.3,58.7,29.98,South,190,8.0,9.0,51,0.00,,,0.00,Wunderground v.1.15,2013-09-23 17:02:00,
2013-09-23 13:07:00,78.2,58.6,29.99,SSW,208,5.0,8.0,51,0.00,,,0.00,Wunderground v.1.15,2013-09-23 17:07:00,
2013-09-23 13:12:00,78.5,58.9,29.98,SSE,164,0.0,8.0,51,0.00,,,0.00,Wunderground v.1.15,2013-09-23 17:12:00,
2013-09-23 13:17:00,79.0,59.3,29.98,South,181,6.0,6.0,51,0.00,,,0.00,Wunderground v.1.15,2013-09-23 17:17:00,
2013-09-23 13:22:00,79.1,58.9,29.98,South,175,4.0,9.0,50,0.00,,,0.00,Wunderground v.1.15,2013-09-23 17:22:00,
2013-09-23 13:27:00,79.1,58.3,29.98,South,176,2.0,5.0,49,0.00,,,0.00,Wunderground v.1.15,2013-09-23 17:27:00,
2013-09-23 13:32:00,78.7,59.0,29.98,SSW,204,6.0,7.0,51,0.00,,,0.00,Wunderground v.1.15,2013-09-23 17:32:00,
2013-09-23 13:37:00,78.3,59.8,29.98,SW,223,1.0,5.0,53,0.00,,,0.00,Wunderground v.1.15,2013-09-23 17:37:00,
2013-09-23 13:42:00,78.5,59.9,29.98,NNW,333,2.0,9.0,53,0.00,,,0.00,Wunderground v.1.15,2013-09-23 17:42:00,
2013-09-23 13:47:00,78.9,58.1,29.98,South,178,0.0,6.0,49,0.00,,,0.00,Wunderground v.1.15,2013-09-23 17:47:00,
2013-09-23 13:52:00,79.6,60.4,29.98,South,178,0.0,6.0,52,0.00,,,0.00,Wunderground v.1.15,2013-09-23 17:52:00,
2013-09-23 13:57:00,80.3,59.4,29.98,South,186,7.0,7.0,49,0.00,,,0.00,Wunderground v.1.15,2013-09-23 17:57:00,
2013-09-23 14:02:00,80.4,59.5,29.97,South,190,0.0,8.0,49,0.00,,,0.00,Wunderground v.1.15,2013-09-23 18:02:00,
2013-09-23 14:07:00,80.5,60.1,29.98,ESE,116,0.0,3.0,50,0.00,,,0.00,Wunderground v.1.15,2013-09-23 18:07:00,
2013-09-23 14:12:00,80.6,60.8,29.98,SSE,167,1.0,9.0,51,0.00,,,0.00,Wunderground v.1.15,2013-09-23 18:12:00,
2013-09-23 14:17:00,80.7,61.4,29.97,South,187,1.0,2.0,52,0.00,,,0.00,Wunderground v.1.15,2013-09-23 18:17:00,
2013-09-23 14:22:00,80.9,61.1,29.97,SSW,211,1.0,5.0,51,0.00,,,0.00,Wunderground v.1.15,2013-09-23 18:22:00,
2013-09-23 14:27:00,80.6,60.8,29.97,SSW,200,5.0,8.0,51,0.00,,,0.00,Wunderground v.1.15,2013-09-23 18:27:00,
2013-09-23 14:32:00,80.1,60.3,29.97,SSW,213,0.0,8.0,51,0.00,,,0.00,Wunderground v.1.15,2013-09-23 18:32:00,
2013-09-23 14:37:00,80.6,62.4,29.96,SSW,192,0.0,5.0,54,0.00,,,0.00,Wunderground v.1.15,2013-09-23 18:37:00,
2013-09-23 14:42:00,81.2,61.9,29.96,East,81,2.0,5.0,52,0.00,,,0.00,Wunderground v.1.15,2013-09-23 18:42:00,
2013-09-23 14:47:00,80.8,61.5,29.96,ENE,71,1.0,3.0,52,0.00,,,0.00,Wunderground v.1.15,2013-09-23 18:47:00,
2013-09-23 14:53:00,79.2,60.6,29.96,ENE,72,2.0,4.0,53,0.00,,,0.00,Wunderground v.1.15,2013-09-23 18:53:00,
2013-09-23 14:58:00,77.9,60.9,29.96,ENE,76,1.0,3.0,56,0.00,,,0.00,Wunderground v.1.15,2013-09-23 18:58:00,
2013-09-23 15:02:00,77.1,60.7,29.96,ENE,72,0.0,3.0,57,0.00,,,0.00,Wunderground v.1.15,2013-09-23 19:02:00,
2013-09-23 15:08:00,77.2,62.2,29.96,ENE,65,0.0,1.0,60,0.00,,,0.00,Wunderground v.1.15,2013-09-23 19:08:00,
2013-09-23 15:13:00,77.6,61.7,29.95,NNE,22,2.0,4.0,58,0.00,,,0.00,Wunderground v.1.15,2013-09-23 19:13:00,
2013-09-23 15:18:00,78.1,61.6,29.96,NNE,29,1.0,2.0,57,0.00,,,0.00,Wunderground v.1.15,2013-09-23 19:18:00,
2013-09-23 15:23:00,78.6,61.1,29.95,NNE,30,0.0,4.0,55,0.00,,,0.00,Wunderground v.1.15,2013-09-23 19:23:00,
2013-09-23 15:28:00,79.5,60.3,29.95,South,186,1.0,4.0,52,0.00,,,0.00,Wunderground v.1.15,2013-09-23 19:28:00,
2013-09-23 15:33:00,80.3,60.0,29.95,South,184,0.0,4.0,50,0.00,,,0.00,Wunderground v.1.15,2013-09-23 19:33:00,
2013-09-23 15:38:00,80.7,59.8,29.95,South,179,0.0,6.0,49,0.00,,,0.00,Wunderground v.1.15,2013-09-23 19:38:00,
2013-09-23 15:43:00,80.6,60.2,29.94,East,91,0.0,6.0,50,0.00,,,0.00,Wunderground v.1.15,2013-09-23 19:43:00,
2013-09-23 15:48:00,80.3,61.1,29.95,ENE,69,1.0,3.0,52,0.00,,,0.00,Wunderground v.1.15,2013-09-23 19:48:00,
2013-09-23 15:53:00,80.0,60.2,29.95,ENE,67,2.0,5.0,51,0.00,,,0.00,Wunderground v.1.15,2013-09-23 19:53:00,
2013-09-23 15:58:00,79.7,60.5,29.95,NE,37,2.0,5.0,52,0.00,,,0.00,Wunderground v.1.15,2013-09-23 19:58:00,
2013-09-23 16:03:00,79.4,60.2,29.94,ENE,60,3.0,5.0,52,0.00,,,0.00,Wunderground v.1.15,2013-09-23 20:03:00,
2013-09-23 16:08:00,79.0,60.4,29.94,ENE,74,2.0,3.0,53,0.00,,,0.00,Wunderground v.1.15,2013-09-23 20:08:00,
2013-09-23 16:13:00,79.1,60.0,29.94,ENE,74,0.0,3.0,52,0.00,,,0.00,Wunderground v.1.15,2013-09-23 20:13:00,
2013-09-23 16:18:00,79.2,60.6,29.94,ENE,74,0.0,1.0,53,0.00,,,0.00,Wunderground v.1.15,2013-09-23 20:18:00,
2013-09-23 16:23:00,79.8,60.1,29.94,ENE,75,0.0,3.0,51,0.00,,,0.00,Wunderground v.1.15,2013-09-23 20:23:00,
2013-09-23 16:28:00,80.4,59.5,29.94,ENE,75,0.0,1.0,49,0.00,,,0.00,Wunderground v.1.15,2013-09-23 20:28:00,
2013-09-23 16:33:00,80.6,59.7,29.94,South,172,0.0,2.0,49,0.00,,,0.00,Wunderground v.1.15,2013-09-23 20:33:00,
2013-09-23 16:38:00,81.2,59.6,29.94,South,169,0.0,2.0,48,0.00,,,0.00,Wunderground v.1.15,2013-09-23 20:38:00,
2013-09-23 16:43:00,81.7,58.9,29.94,ENE,70,0.0,6.0,46,0.00,,,0.00,Wunderground v.1.15,2013-09-23 20:43:00,
2013-09-23 16:48:00,81.4,59.2,29.94,ENE,58,2.0,4.0,47,0.00,,,0.00,Wunderground v.1.15,2013-09-23 20:48:00,
2013-09-23 16:54:00,80.9,59.4,29.94,ENE,76,0.0,4.0,48,0.00,,,0.00,Wunderground v.1.15,2013-09-23 20:54:00,
2013-09-23 16:58:00,80.6,60.2,29.94,ENE,75,0.0,1.0,50,0.00,,,0.00,Wunderground v.1.15,2013-09-23 20:58:00,
2013-09-23 17:03:00,80.3,60.0,29.94,ENE,70,0.0,4.0,50,0.00,,,0.00,Wunderground v.1.15,2013-09-23 21:03:00,
2013-09-23 17:08:00,80.0,60.2,29.94,ENE,75,0.0,3.0,51,0.00,,,0.00,Wunderground v.1.15,2013-09-23 21:08:00,
2013-09-23 17:13:00,80.2,59.9,29.94,ENE,78,0.0,3.0,50,0.00,,,0.00,Wunderground v.1.15,2013-09-23 21:13:00,
2013-09-23 17:18:00,80.1,59.8,29.94,ENE,78,0.0,0.0,50,0.00,,,0.00,Wunderground v.1.15,2013-09-23 21:18:00,
2013-09-23 17:24:00,79.6,59.9,29.94,ENE,78,0.0,1.0,51,0.00,,,0.00,Wunderground v.1.15,2013-09-23 21:24:00,
2013-09-23 17:29:00,79.0,59.9,29.94,ENE,78,0.0,0.0,52,0.00,,,0.00,Wunderground v.1.15,2013-09-23 21:29:00,
2013-09-23 17:34:00,78.4,60.4,29.94,ENE,78,0.0,0.0,54,0.00,,,0.00,Wunderground v.1.15,2013-09-23 21:34:00,
2013-09-23 17:39:00,78.4,60.4,29.94,ENE,78,0.0,0.0,54,0.00,,,0.00,Wunderground v.1.15,2013-09-23 21:39:00,
2013-09-23 17:44:00,78.8,60.7,29.94,ENE,78,0.0,2.0,54,0.00,,,0.00,Wunderground v.1.15,2013-09-23 21:44:00,
2013-09-23 17:49:00,79.4,60.2,29.94,ENE,78,0.0,0.0,52,0.00,,,0.00,Wunderground v.1.15,2013-09-23 21:49:00,
2013-09-23 17:54:00,79.8,59.5,29.94,ENE,78,0.0,0.0,50,0.00,,,0.00,Wunderground v.1.15,2013-09-23 21:54:00,
2013-09-23 17:59:00,80.1,60.3,29.94,ENE,78,0.0,0.0,51,0.00,,,0.00,Wunderground v.1.15,2013-09-23 21:59:00,
2013-09-23 18:04:00,80.1,60.3,29.94,ENE,78,0.0,0.0,51,0.00,,,0.00,Wunderground v.1.15,2013-09-23 22:04:00,
2013-09-23 18:09:00,80.0,60.2,29.94,ENE,78,0.0,0.0,51,0.00,,,0.00,Wunderground v.1.15,2013-09-23 22:09:00,
2013-09-23 18:14:00,79.7,61.6,29.95,ENE,78,0.0,0.0,54,0.00,,,0.00,Wunderground v.1.15,2013-09-23 22:14:00,
2013-09-23 18:19:00,79.4,61.3,29.95,ENE,78,0.0,0.0,54,0.00,,,0.00,Wunderground v.1.15,2013-09-23 22:19:00,
2013-09-23 18:24:00,79.2,61.6,29.95,ENE,78,0.0,0.0,55,0.00,,,0.00,Wunderground v.1.15,2013-09-23 22:24:00,
2013-09-23 18:29:00,78.8,61.3,29.95,ENE,78,0.0,0.0,55,0.00,,,0.00,Wunderground v.1.15,2013-09-23 22:29:00,
2013-09-23 18:34:00,78.4,60.9,29.95,ENE,78,0.0,0.0,55,0.00,,,0.00,Wunderground v.1.15,2013-09-23 22:34:00,
2013-09-23 18:40:00,77.9,61.4,29.95,ENE,69,0.0,0.0,57,0.00,,,0.00,Wunderground v.1.15,2013-09-23 22:40:00,
2013-09-23 18:45:00,77.4,61.9,29.95,ENE,69,0.0,0.0,59,0.00,,,0.00,Wunderground v.1.15,2013-09-23 22:45:00,
2013-09-23 18:47:00,59.2,44.4,30.08,WSW,252,0.0,0.0,58,0.00,,,0.00,Wunderground v.1.15,2013-09-23 22:47:00,
2013-09-23 18:50:00,76.7,61.8,29.95,ENE,69,0.0,0.0,60,0.00,,,0.00,Wunderground v.1.15,2013-09-23 22:50:00,
2013-09-23 18:52:00,58.6,44.8,30.09,WSW,252,0.0,0.0,60,0.00,,,0.00,Wunderground v.1.15,2013-09-23 22:52:00,
2013-09-23 18:53:00,58.5,45.1,30.08,WSW,252,0.0,0.0,61,0.00,,,0.00,Wunderground v.1.15,2013-09-23 22:53:00,
2013-09-23 18:54:00,58.4,45.0,30.09,WSW,252,0.0,0.0,61,0.00,,,0.00,Wunderground v.1.15,2013-09-23 22:54:00,
2013-09-23 18:55:00,76.1,61.7,29.95,ENE,69,0.0,0.0,61,0.00,,,0.00,Wunderground v.1.15,2013-09-23 22:55:00,
2013-09-23 18:56:00,58.1,44.7,30.09,WSW,252,0.0,0.0,61,0.00,,,0.00,Wunderground v.1.15,2013-09-23 22:56:00,
2013-09-23 18:57:00,58.0,44.6,30.09,WSW,252,0.0,0.0,61,0.00,,,0.00,Wunderground v.1.15,2013-09-23 22:57:00,
2013-09-23 18:59:00,57.8,44.4,30.09,WSW,252,0.0,0.0,61,0.00,,,0.00,Wunderground v.1.15,2013-09-23 22:59:00,
2013-09-23 19:00:00,75.7,61.8,29.95,ENE,69,0.0,0.0,62,0.00,,,0.00,Wunderground v.1.15,2013-09-23 23:00:00,
2013-09-23 19:01:00,57.7,44.8,30.09,WSW,252,0.0,0.0,62,0.00,,,0.00,Wunderground v.1.15,2013-09-23 23:01:00,
2013-09-23 19:03:00,57.6,44.7,30.09,WSW,252,0.0,0.0,62,0.00,,,0.00,Wunderground v.1.15,2013-09-23 23:03:00,
2013-09-23 19:05:00,75.3,62.3,29.95,ENE,69,0.0,0.0,64,0.00,,,0.00,Wunderground v.1.15,2013-09-23 23:05:00,
2013-09-23 19:10:00,74.9,61.9,29.95,ENE,69,0.0,0.0,64,0.00,,,0.00,Wunderground v.1.15,2013-09-23 23:10:00,
2013-09-23 19:15:00,74.6,62.1,29.95,ENE,69,0.0,0.0,65,0.00,,,0.00,Wunderground v.1.15,2013-09-23 23:15:00,
2013-09-23 19:20:00,74.3,62.2,29.95,ENE,69,0.0,0.0,66,0.00,,,0.00,Wunderground v.1.15,2013-09-23 23:20:00,
2013-09-23 19:25:00,74.0,61.9,29.96,ENE,69,0.0,0.0,66,0.00,,,0.00,Wunderground v.1.15,2013-09-23 23:25:00,
2013-09-23 19:30:00,73.8,61.7,29.96,ENE,69,0.0,0.0,66,0.00,,,0.00,Wunderground v.1.15,2013-09-23 23:30:00,
2013-09-23 19:35:00,73.5,61.4,29.96,ENE,69,0.0,0.0,66,0.00,,,0.00,Wunderground v.1.15,2013-09-23 23:35:00,
2013-09-23 19:40:00,73.3,61.7,29.96,ENE,69,0.0,0.0,67,0.00,,,0.00,Wunderground v.1.15,2013-09-23 23:40:00,
2013-09-23 19:45:00,73.0,61.8,29.96,ENE,69,0.0,0.0,68,0.00,,,0.00,Wunderground v.1.15,2013-09-23 23:45:00,
2013-09-23 19:50:00,72.6,62.3,29.96,ENE,69,0.0,0.0,70,0.00,,,0.00,Wunderground v.1.15,2013-09-23 23:50:00,
2013-09-23 19:55:00,72.2,61.5,29.96,ENE,69,0.0,0.0,69,0.00,,,0.00,Wunderground v.1.15,2013-09-23 23:55:00,
2013-09-23 20:00:00,72.0,61.3,29.97,ENE,69,0.0,0.0,69,0.00,,,0.00,Wunderground v.1.15,2013-09-24 00:00:00,
2013-09-23 20:05:00,71.8,61.5,29.96,ENE,69,0.0,0.0,70,0.00,,,0.00,Wunderground v.1.15,2013-09-24 00:05:00,
2013-09-23 20:10:00,71.5,61.6,29.96,ENE,69,0.0,0.0,71,0.00,,,0.00,Wunderground v.1.15,2013-09-24 00:10:00,
2013-09-23 20:15:00,71.3,61.4,29.96,ENE,69,0.0,0.0,71,0.00,,,0.00,Wunderground v.1.15,2013-09-24 00:15:00,
2013-09-23 20:20:00,71.1,62.4,29.96,ENE,69,0.0,0.0,74,0.00,,,0.00,Wunderground v.1.15,2013-09-24 00:20:00,
2013-09-23 20:25:00,70.8,62.5,29.97,ENE,69,0.0,0.0,75,0.00,,,0.00,Wunderground v.1.15,2013-09-24 00:25:00,
2013-09-23 20:31:00,70.4,62.5,29.96,ENE,69,0.0,0.0,76,0.00,,,0.00,Wunderground v.1.15,2013-09-24 00:31:00,
2013-09-23 20:36:00,70.1,62.2,29.97,ENE,69,0.0,0.0,76,0.00,,,0.00,Wunderground v.1.15,2013-09-24 00:36:00,
2013-09-23 20:41:00,69.8,62.3,29.97,ENE,69,0.0,0.0,77,0.00,,,0.00,Wunderground v.1.15,2013-09-24 00:41:00,
2013-09-23 20:46:00,69.6,62.4,29.97,ENE,69,0.0,0.0,78,0.00,,,0.00,Wunderground v.1.15,2013-09-24 00:46:00,
2013-09-23 20:51:00,69.2,62.4,29.97,ENE,69,0.0,0.0,79,0.00,,,0.00,Wunderground v.1.15,2013-09-24 00:51:00,
2013-09-23 20:56:00,68.9,62.1,29.98,ENE,69,0.0,0.0,79,0.00,,,0.00,Wunderground v.1.15,2013-09-24 00:56:00,
2013-09-23 21:01:00,68.6,62.2,29.98,ENE,69,0.0,0.0,80,0.00,,,0.00,Wunderground v.1.15,2013-09-24 01:01:00,
2013-09-23 21:06:00,68.4,62.3,29.97,ENE,69,0.0,0.0,81,0.00,,,0.00,Wunderground v.1.15,2013-09-24 01:06:00,
2013-09-23 21:11:00,68.2,62.1,29.98,ENE,69,0.0,0.0,81,0.00,,,0.00,Wunderground v.1.15,2013-09-24 01:11:00,
2013-09-23 21:16:00,68.1,62.0,29.98,ENE,69,0.0,0.0,81,0.00,,,0.00,Wunderground v.1.15,2013-09-24 01:16:00,
2013-09-23 21:21:00,68.1,61.7,29.98,ENE,69,0.0,0.0,80,0.00,,,0.00,Wunderground v.1.15,2013-09-24 01:21:00,
2013-09-23 21:26:00,68.2,61.4,29.98,ENE,69,0.0,0.0,79,0.00,,,0.00,Wunderground v.1.15,2013-09-24 01:26:00,
2013-09-23 21:31:00,68.3,61.5,29.98,ENE,69,0.0,0.0,79,0.00,,,0.00,Wunderground v.1.15,2013-09-24 01:31:00,
2013-09-23 21:36:00,68.3,61.5,29.98,ENE,69,0.0,0.0,79,0.00,,,0.00,Wunderground v.1.15,2013-09-24 01:36:00,
2013-09-23 21:41:00,68.4,61.3,29.98,ENE,69,0.0,0.0,78,0.00,,,0.00,Wunderground v.1.15,2013-09-24 01:41:00,
2013-09-23 21:46:00,68.4,61.3,29.98,ENE,69,0.0,0.0,78,0.00,,,0.00,Wunderground v.1.15,2013-09-24 01:46:00,
2013-09-23 21:51:00,68.4,61.6,29.98,ENE,69,0.0,0.0,79,0.00,,,0.00,Wunderground v.1.15,2013-09-24 01:51:00,
2013-09-23 21:56:00,68.4,61.6,29.98,ENE,69,0.0,0.0,79,0.00,,,0.00,Wunderground v.1.15,2013-09-24 01:56:00,
2013-09-23 22:01:00,68.3,61.5,29.98,ENE,69,0.0,0.0,79,0.00,,,0.00,Wunderground v.1.15,2013-09-24 02:01:00,
2013-09-23 22:06:00,68.3,61.5,29.98,ENE,69,0.0,0.0,79,0.00,,,0.00,Wunderground v.1.15,2013-09-24 02:06:00,
2013-09-23 22:11:00,68.1,61.3,29.98,ENE,69,0.0,0.0,79,0.00,,,0.00,Wunderground v.1.15,2013-09-24 02:11:00,
2013-09-23 22:16:00,68.0,61.2,29.99,ENE,69,0.0,0.0,79,0.00,,,0.00,Wunderground v.1.15,2013-09-24 02:16:00,
2013-09-23 22:21:00,67.9,61.1,29.99,ENE,69,0.0,0.0,79,0.00,,,0.00,Wunderground v.1.15,2013-09-24 02:21:00,
2013-09-23 22:26:00,67.7,61.0,29.99,ENE,69,0.0,0.0,79,0.00,,,0.00,Wunderground v.1.15,2013-09-24 02:26:00,
2013-09-23 22:32:00,67.6,60.9,29.99,ENE,69,0.0,0.0,79,0.00,,,0.00,Wunderground v.1.15,2013-09-24 02:32:00,
2013-09-23 22:37:00,67.5,60.8,29.99,ENE,69,0.0,0.0,79,0.00,,,0.00,Wunderground v.1.15,2013-09-24 02:37:00,
2013-09-23 22:42:00,67.4,60.7,29.99,ENE,69,0.0,0.0,79,0.00,,,0.00,Wunderground v.1.15,2013-09-24 02:42:00,
2013-09-23 22:47:00,67.3,60.6,30.00,ENE,69,0.0,0.0,79,0.00,,,0.00,Wunderground v.1.15,2013-09-24 02:47:00,
2013-09-23 22:52:00,67.2,61.2,30.00,ENE,69,0.0,0.0,81,0.00,,,0.00,Wunderground v.1.15,2013-09-24 02:52:00,
2013-09-23 22:57:00,67.1,61.4,30.00,ENE,69,0.0,0.0,82,0.00,,,0.00,Wunderground v.1.15,2013-09-24 02:57:00,
2013-09-23 23:02:00,66.9,60.9,30.00,ENE,69,0.0,0.0,81,0.00,,,0.00,Wunderground v.1.15,2013-09-24 03:02:00,
2013-09-23 23:07:00,66.8,60.8,30.00,ENE,69,0.0,0.0,81,0.00,,,0.00,Wunderground v.1.15,2013-09-24 03:07:00,
2013-09-23 23:12:00,66.5,60.8,30.00,ENE,69,0.0,0.0,82,0.00,,,0.00,Wunderground v.1.15,2013-09-24 03:12:00,
2013-09-23 23:17:00,66.1,60.8,30.00,ENE,69,0.0,0.0,83,0.00,,,0.00,Wunderground v.1.15,2013-09-24 03:17:00,
2013-09-23 23:22:00,65.8,60.8,30.00,ENE,69,0.0,0.0,84,0.00,,,0.00,Wunderground v.1.15,2013-09-24 03:22:00,
2013-09-23 23:27:00,65.5,60.5,30.00,ENE,69,0.0,0.0,84,0.00,,,0.00,Wunderground v.1.15,2013-09-24 03:27:00,
2013-09-23 23:32:00,65.3,60.7,30.00,ENE,69,0.0,0.0,85,0.00,,,0.00,Wunderground v.1.15,2013-09-24 03:32:00,
2013-09-23 23:37:00,65.1,60.1,30.00,ENE,69,0.0,0.0,84,0.00,,,0.00,Wunderground v.1.15,2013-09-24 03:37:00,
2013-09-23 23:42:00,65.0,60.4,30.00,ENE,69,0.0,0.0,85,0.00,,,0.00,Wunderground v.1.15,2013-09-24 03:42:00,
2013-09-23 23:44:00,49.6,41.7,30.15,NE,38,0.0,0.0,74,0.00,,,0.00,Wunderground v.1.15,2013-09-24 03:44:00,
2013-09-23 23:45:00,49.5,41.6,30.15,NE,38,0.0,0.0,74,0.00,,,0.00,Wunderground v.1.15,2013-09-24 03:45:00,
2013-09-23 23:46:00,49.5,41.6,30.15,NE,38,0.0,0.0,74,0.00,,,0.00,Wunderground v.1.15,2013-09-24 03:46:00,
2013-09-23 23:47:00,64.8,60.5,30.00,ENE,69,0.0,0.0,86,0.00,,,0.00,Wunderground v.1.15,2013-09-24 03:47:00,
2013-09-23 23:48:00,49.4,41.5,30.15,NE,38,0.0,0.0,74,0.00,,,0.00,Wunderground v.1.15,2013-09-24 03:48:00,
2013-09-23 23:49:00,49.3,41.4,30.15,NE,38,0.0,0.0,74,0.00,,,0.00,Wunderground v.1.15,2013-09-24 03:49:00,
2013-09-23 23:50:00,49.2,41.3,30.15,NE,38,0.0,0.0,74,0.00,,,0.00,Wunderground v.1.15,2013-09-24 03:50:00,
2013-09-23 23:51:00,49.2,41.3,30.15,NE,38,0.0,0.0,74,0.00,,,0.00,Wunderground v.1.15,2013-09-24 03:51:00,
2013-09-23 23:52:00,49.1,41.5,30.15,NE,38,0.0,0.0,75,0.00,,,0.00,Wunderground v.1.15,2013-09-24 03:52:00,
2013-09-23 23:53:00,64.6,60.3,30.00,ENE,69,0.0,0.0,86,0.00,,,0.00,Wunderground v.1.15,2013-09-24 03:53:00,
2013-09-23 23:54:00,49.0,41.4,30.15,NE,38,0.0,0.0,75,0.00,,,0.00,Wunderground v.1.15,2013-09-24 03:54:00,
2013-09-23 23:55:00,48.9,41.3,30.15,NE,38,0.0,0.0,75,0.00,,,0.00,Wunderground v.1.15,2013-09-24 03:55:00,
2013-09-23 23:58:00,64.2,60.2,30.00,ENE,69,0.0,0.0,87,0.00,,,0.00,Wunderground v.1.15,2013-09-24 03:58:00,